Time;durP1;ratioP1;P1;durP2;ratioP2;P2;SDS_P1;SDS_P2;PMS_P1;PMS_P2;Temp;Humidity;BMP_temperature;BMP_pressure;BME280_temperature;BME280_humidity;BME280_pressure;Samples;Min_cycle;Max_cycle;Signal;HPM_P1;HPM_P2
2023/02/28 00:00:25;;;;;;;6.82;2.60;;;1.70;82.30;;;;;;5038140;28;20030;-71
2023/02/28 00:02:51;;;;;;;7.60;3.00;;;1.70;81.50;;;;;;5043685;28;20029;-71
2023/02/28 00:05:19;;;;;;;9.82;2.92;;;1.70;81.60;;;;;;5038595;28;20045;-71
2023/02/28 00:07:45;;;;;;;7.60;2.50;;;1.70;81.70;;;;;;5032060;28;20029;-71
2023/02/28 00:10:13;;;;;;;8.23;2.95;;;1.70;81.50;;;;;;5030657;28;20739;-71
2023/02/28 00:12:39;;;;;;;6.95;3.00;;;1.60;82.20;;;;;;5009964;28;20509;-71
2023/02/28 00:15:09;;;;;;;7.13;2.53;;;1.60;82.40;;;;;;5011499;28;20037;-71
2023/02/28 00:17:35;;;;;;;7.05;2.67;;;1.50;82.50;;;;;;5032713;28;20047;-71
2023/02/28 00:20:07;;;;;;;11.98;3.33;;;1.40;82.80;;;;;;5029198;28;20033;-71
2023/02/28 00:22:33;;;;;;;11.57;2.70;;;1.40;82.80;;;;;;5033601;28;20095;-71
2023/02/28 00:24:58;;;;;;;9.02;3.55;;;1.30;83.00;;;;;;5047148;28;20033;-71
2023/02/28 00:27:24;;;;;;;8.35;3.15;;;1.20;83.40;;;;;;5032049;28;20091;-71
2023/02/28 00:29:49;;;;;;;8.65;3.03;;;1.10;83.70;;;;;;5029630;28;20081;-71
2023/02/28 00:32:15;;;;;;;5.97;2.90;;;1.00;83.80;;;;;;5027560;28;20036;-71
2023/02/28 00:34:40;;;;;;;8.45;3.30;;;0.90;84.00;;;;;;5029752;28;20092;-71
2023/02/28 00:37:07;;;;;;;10.00;3.40;;;0.80;84.30;;;;;;5036854;28;20037;-71
2023/02/28 00:39:34;;;;;;;12.60;3.85;;;0.60;84.60;;;;;;5031452;28;20069;-73
2023/02/28 00:42:00;;;;;;;8.25;2.97;;;0.50;84.90;;;;;;5025452;28;20501;-73
2023/02/28 00:44:25;;;;;;;10.73;3.75;;;0.30;85.30;;;;;;5033487;28;20034;-73
2023/02/28 00:46:51;;;;;;;8.70;3.80;;;0.20;85.90;;;;;;5029289;28;20470;-73
2023/02/28 00:49:17;;;;;;;10.60;4.15;;;0.10;86.50;;;;;;5027937;28;20067;-73
2023/02/28 00:51:43;;;;;;;8.15;3.28;;;0.00;86.70;;;;;;5030666;28;20469;-71
2023/02/28 00:54:08;;;;;;;11.82;4.13;;;0.00;86.90;;;;;;5040881;28;20054;-71
2023/02/28 00:56:33;;;;;;;11.70;4.15;;;-3276.60;87.30;;;;;;5042499;28;20037;-71
2023/02/28 00:58:59;;;;;;;12.20;4.38;;;-3276.50;87.70;;;;;;5031109;28;20029;-71
2023/02/28 01:01:24;;;;;;;10.32;3.55;;;-3276.40;88.10;;;;;;5043341;28;20038;-71
2023/02/28 01:03:50;;;;;;;10.95;4.00;;;-3276.40;88.40;;;;;;5036569;28;20453;-71
2023/02/28 01:06:15;;;;;;;7.75;3.53;;;-3276.40;88.70;;;;;;5030396;28;20033;-71
2023/02/28 01:08:41;;;;;;;9.73;3.78;;;-3276.30;89.10;;;;;;5029131;28;20482;-71
2023/02/28 01:11:11;;;;;;;6.45;3.10;;;-3276.30;89.10;;;;;;5032960;28;20033;-71
2023/02/28 01:13:37;;;;;;;7.30;2.60;;;-3276.30;89.30;;;;;;5038487;28;20048;-71
2023/02/28 01:16:03;;;;;;;9.38;3.30;;;-3276.30;89.00;;;;;;5045729;28;20448;-72
2023/02/28 01:18:28;;;;;;;5.95;2.53;;;-3276.30;89.00;;;;;;5043782;28;20029;-73
2023/02/28 01:20:54;;;;;;;6.10;2.30;;;-3276.20;89.20;;;;;;5032274;28;20021;-73
2023/02/28 01:23:23;;;;;;;6.38;2.40;;;-3276.20;89.20;;;;;;5004331;28;20033;-73
2023/02/28 01:25:49;;;;;;;5.40;2.28;;;-3276.20;89.30;;;;;;5027761;28;20485;-73
2023/02/28 01:28:14;;;;;;;5.90;2.53;;;-3276.10;89.10;;;;;;5028014;28;20042;-73
2023/02/28 01:30:40;;;;;;;5.40;2.50;;;-3276.10;89.50;;;;;;5024711;28;20025;-73
2023/02/28 01:33:06;;;;;;;5.30;2.50;;;-3276.00;89.80;;;;;;5027094;28;20049;-73
2023/02/28 01:35:33;;;;;;;9.25;2.40;;;-3276.00;89.90;;;;;;5029935;28;20041;-73
2023/02/28 01:37:59;;;;;;;5.38;2.58;;;-3276.00;89.80;;;;;;5031488;28;20028;-73
2023/02/28 01:40:24;;;;;;;9.18;2.50;;;-3276.00;89.90;;;;;;5028987;28;20375;-73
2023/02/28 01:42:50;;;;;;;5.88;2.50;;;-3276.00;90.00;;;;;;5027291;28;20041;-73
2023/02/28 01:45:20;;;;;;;6.00;2.42;;;-3275.80;89.80;;;;;;5032473;28;20045;-73
2023/02/28 01:47:47;;;;;;;5.10;2.50;;;-3275.80;90.10;;;;;;5026560;28;20025;-73
2023/02/28 01:50:17;;;;;;;8.77;2.50;;;-3275.80;90.40;;;;;;5028918;28;20044;-73
2023/02/28 01:52:45;;;;;;;5.47;2.60;;;-3275.70;90.30;;;;;;5017648;28;20108;-73
2023/02/28 01:55:11;;;;;;;6.30;2.50;;;-3275.60;90.50;;;;;;5033342;28;20536;-73
2023/02/28 01:57:50;;;;;;;7.40;2.33;;;-3275.50;90.70;;;;;;5008181;28;20065;-73
2023/02/28 02:00:21;;;;;;;5.35;2.38;;;-3275.40;90.90;;;;;;5035540;28;20037;-73
2023/02/28 02:02:50;;;;;;;6.28;2.85;;;-3275.30;91.00;;;;;;5049476;28;20025;-73
2023/02/28 02:05:19;;;;;;;5.13;2.58;;;-3275.30;91.30;;;;;;5040696;28;20037;-73
2023/02/28 02:07:46;;;;;;;4.97;2.40;;;-3275.30;91.50;;;;;;5028842;28;20034;-73
2023/02/28 02:10:20;;;;;;;7.97;2.67;;;-3275.20;91.70;;;;;;5031018;28;20080;-73
2023/02/28 02:13:37;;;;;;;8.48;2.80;;;-3275.20;91.70;;;;;;5022442;28;20051;-73
2023/02/28 02:16:22;;;;;;;7.80;2.95;;;-3275.10;91.80;;;;;;5019382;28;20128;-73
2023/02/28 02:19:04;;;;;;;8.05;3.20;;;-3275.10;92.10;;;;;;5041155;28;20079;-71
2023/02/28 02:21:50;;;;;;;5.82;2.30;;;-3275.10;92.30;;;;;;5043681;28;20021;-72
2023/02/28 02:24:47;;;;;;;13.50;3.55;;;-3275.00;92.50;;;;;;5038797;28;20034;-72
2023/02/28 02:27:34;;;;;;;7.18;2.72;;;-3275.00;92.40;;;;;;5027194;28;20080;-72
2023/02/28 02:30:29;;;;;;;6.38;2.47;;;-3275.00;92.70;;;;;;5024547;28;20077;-72
2023/02/28 02:33:10;;;;;;;6.80;3.38;;;-3274.90;92.70;;;;;;5023832;28;20514;-72
2023/02/28 02:35:56;;;;;;;7.90;3.53;;;-3275.00;92.90;;;;;;5029344;28;20038;-72
2023/02/28 02:38:38;;;;;;;5.07;2.60;;;-3275.00;93.10;;;;;;5031626;28;20068;-71
2023/02/28 02:41:15;;;;;;;7.07;3.05;;;-3275.00;93.10;;;;;;5028040;28;20022;-72
2023/02/28 02:43:52;;;;;;;8.57;3.28;;;-3274.90;93.10;;;;;;5027957;28;20033;-71
2023/02/28 02:46:21;;;;;;;6.78;3.13;;;-3274.90;93.30;;;;;;5032876;28;20371;-71
2023/02/28 02:48:49;;;;;;;5.47;3.13;;;-3274.80;93.20;;;;;;5033866;28;20034;-71
2023/02/28 02:51:18;;;;;;;8.88;3.20;;;-3274.80;93.30;;;;;;5030134;28;20033;-72
2023/02/28 02:53:49;;;;;;;5.00;3.17;;;-3274.70;93.40;;;;;;5031968;28;20049;-71
2023/02/28 02:56:19;;;;;;;6.57;3.15;;;-3274.70;93.50;;;;;;5018041;28;20037;-72
2023/02/28 02:58:48;;;;;;;8.95;3.25;;;-3274.70;93.70;;;;;;5035010;28;20036;-72
2023/02/28 03:01:27;;;;;;;6.50;3.28;;;-3274.70;93.80;;;;;;5036419;28;20052;-71
2023/02/28 03:04:10;;;;;;;9.65;2.95;;;-3274.70;93.90;;;;;;5038674;28;20367;-72
2023/02/28 03:06:36;;;;;;;11.65;3.58;;;-3274.80;93.90;;;;;;5039532;28;20045;-72
2023/02/28 03:09:02;;;;;;;5.90;3.22;;;-3274.70;93.80;;;;;;5045051;28;20080;-72
2023/02/28 03:11:29;;;;;;;9.23;3.50;;;-3274.80;94.00;;;;;;5032696;28;20037;-72
2023/02/28 03:14:23;;;;;;;5.75;2.80;;;-3274.90;94.00;;;;;;5033982;28;20033;-72
2023/02/28 03:16:58;;;;;;;8.35;2.72;;;-3274.90;94.00;;;;;;5018670;28;20553;-72
2023/02/28 03:19:59;;;;;;;5.18;2.83;;;-3274.80;94.00;;;;;;5042800;28;20044;-72
2023/02/28 03:22:39;;;;;;;6.45;3.17;;;-3274.80;93.90;;;;;;5052363;28;20495;-72
2023/02/28 03:25:13;;;;;;;;;;;-3274.70;93.80;;;;;;5036840;28;20026;-71
2023/02/28 03:27:53;;;;;;;9.38;3.10;;;-3274.70;93.80;;;;;;5034033;28;19909;-72
2023/02/28 03:30:29;;;;;;;8.10;3.35;;;-3274.60;93.80;;;;;;5013700;28;20054;-71
2023/02/28 03:33:12;;;;;;;5.88;2.83;;;-3274.60;94.10;;;;;;5015262;28;20046;-72
2023/02/28 03:35:47;;;;;;;8.23;3.22;;;-3274.50;94.10;;;;;;5009114;28;20037;-72
2023/02/28 03:38:25;;;;;;;6.97;3.20;;;-3274.50;94.30;;;;;;5011154;28;20029;-72
2023/02/28 03:41:02;;;;;;;6.55;3.00;;;-3274.50;94.20;;;;;;5010188;28;20041;-72
2023/02/28 03:43:32;;;;;;;8.00;3.25;;;-3274.30;94.10;;;;;;5009885;28;20125;-72
2023/02/28 03:46:03;;;;;;;7.93;3.17;;;-3274.30;94.10;;;;;;5007876;28;20021;-72
2023/02/28 03:48:41;;;;;;;7.57;3.40;;;-3274.30;94.30;;;;;;5010075;28;20034;-72
2023/02/28 03:51:09;;;;;;;9.73;3.03;;;-3274.20;94.30;;;;;;5006484;28;20246;-72
2023/02/28 03:53:38;;;;;;;7.75;3.25;;;-3274.20;94.40;;;;;;5016186;28;20040;-71
2023/02/28 03:56:17;;;;;;;10.98;3.50;;;-3274.20;94.60;;;;;;5010092;28;20025;-71
2023/02/28 03:59:21;;;;;;;8.43;3.05;;;-3274.20;94.60;;;;;;5009413;28;20540;-71
2023/02/28 04:01:48;;;;;;;7.05;3.15;;;-3274.20;94.60;;;;;;4998396;28;20042;-71
2023/02/28 04:04:15;;;;;;;7.63;3.47;;;-3274.20;94.80;;;;;;5014468;28;20030;-71
2023/02/28 04:06:42;;;;;;;5.70;3.08;;;-3274.20;94.80;;;;;;5006454;28;20036;-72
2023/02/28 04:09:09;;;;;;;10.43;3.10;;;-3274.20;94.80;;;;;;5012585;28;20033;-71
2023/02/28 04:11:37;;;;;;;7.30;3.45;;;-3274.30;94.90;;;;;;5008452;28;20109;-72
2023/02/28 04:14:04;;;;;;;6.32;3.40;;;-3274.30;94.80;;;;;;5011231;28;20060;-71
2023/02/28 04:16:31;;;;;;;10.57;3.80;;;-3274.30;94.90;;;;;;5010528;28;20048;-71
2023/02/28 04:19:01;;;;;;;8.63;3.70;;;-3274.20;94.90;;;;;;5008719;28;20122;-72
2023/02/28 04:21:28;;;;;;;9.07;3.25;;;-3274.30;94.90;;;;;;5006458;28;20116;-72
2023/02/28 04:23:54;;;;;;;7.07;3.25;;;-3274.20;94.80;;;;;;5009638;28;20026;-72
2023/02/28 04:26:20;;;;;;;6.28;3.38;;;-3274.10;94.90;;;;;;5006020;28;20022;-71
2023/02/28 04:28:45;;;;;;;7.22;3.25;;;-3274.10;94.90;;;;;;5014931;28;20053;-72
2023/02/28 04:31:11;;;;;;;6.65;3.40;;;-3274.10;94.90;;;;;;5037140;28;20045;-71
2023/02/28 04:33:36;;;;;;;6.82;3.45;;;-3274.00;94.80;;;;;;5031746;28;20037;-71
2023/02/28 04:36:08;;;;;;;9.60;3.63;;;-3274.00;94.90;;;;;;5033210;28;20068;-71
2023/02/28 04:38:38;;;;;;;7.88;3.65;;;-3273.90;95.00;;;;;;5025388;28;20116;-71
2023/02/28 04:41:04;;;;;;;5.95;3.08;;;-3273.90;95.00;;;;;;5027154;28;20037;-72
2023/02/28 04:43:30;;;;;;;7.32;3.40;;;-3273.90;95.10;;;;;;5028674;28;20461;-74
2023/02/28 04:45:58;;;;;;;7.82;3.80;;;-3273.80;95.00;;;;;;5024198;28;20104;-74
2023/02/28 04:48:24;;;;;;;7.72;3.40;;;-3273.80;95.10;;;;;;5034778;28;20092;-73
2023/02/28 04:50:51;;;;;;;5.88;3.35;;;-3273.70;95.10;;;;;;5030966;28;20083;-73
2023/02/28 04:53:16;;;;;;;7.43;2.90;;;-3273.70;95.20;;;;;;5029129;28;20120;-73
2023/02/28 04:55:42;;;;;;;10.20;3.75;;;-3273.70;95.10;;;;;;5032466;28;20036;-73
2023/02/28 04:58:07;;;;;;;12.40;3.80;;;-3273.60;95.20;;;;;;5029251;28;20116;-73
2023/02/28 05:00:33;;;;;;;5.53;3.05;;;-3273.60;95.20;;;;;;5026944;28;20083;-73
2023/02/28 05:02:58;;;;;;;8.05;3.40;;;-3273.60;95.20;;;;;;5028174;28;20033;-73
2023/02/28 05:05:24;;;;;;;6.70;3.25;;;-3273.60;95.20;;;;;;5031003;28;20141;-73
2023/02/28 05:07:49;;;;;;;8.95;3.30;;;-3273.60;95.20;;;;;;5038292;28;20030;-73
2023/02/28 05:10:15;;;;;;;7.72;3.97;;;-3273.50;95.10;;;;;;5031860;28;20466;-74
2023/02/28 05:12:40;;;;;;;8.15;3.45;;;-3273.50;95.10;;;;;;5043345;28;20115;-73
2023/02/28 05:15:08;;;;;;;6.43;3.10;;;-3273.60;95.40;;;;;;5032934;28;20637;-71
2023/02/28 05:17:33;;;;;;;8.55;3.38;;;-3273.60;95.40;;;;;;5036699;28;20057;-71
2023/02/28 05:19:59;;;;;;;9.43;3.72;;;-3273.60;95.50;;;;;;5039168;28;20104;-71
2023/02/28 05:22:24;;;;;;;7.05;3.38;;;-3273.60;95.60;;;;;;5011834;28;20386;-71
2023/02/28 05:24:50;;;;;;;11.15;4.22;;;-3273.60;95.60;;;;;;5022490;28;20031;-71
2023/02/28 05:27:15;;;;;;;8.65;3.92;;;-3273.60;95.70;;;;;;5019500;28;20029;-71
2023/02/28 05:29:44;;;;;;;9.10;3.80;;;-3273.60;95.50;;;;;;5029103;28;20383;-68
2023/02/28 05:32:11;;;;;;;10.48;4.25;;;-3273.60;95.60;;;;;;5026857;28;20033;-71
2023/02/28 05:34:38;;;;;;;6.75;3.45;;;-3273.50;95.50;;;;;;5029741;28;20087;-73
2023/02/28 05:37:12;;;;;;;10.88;4.20;;;-3273.50;95.50;;;;;;5032133;28;20046;-71
2023/02/28 05:39:38;;;;;;;7.82;3.33;;;-3273.50;95.60;;;;;;5026795;28;20064;-71
2023/02/28 05:42:04;;;;;;;9.50;3.88;;;-3273.50;95.60;;;;;;5034939;28;20539;-71
2023/02/28 05:44:30;;;;;;;7.53;3.80;;;-3273.40;95.50;;;;;;5030917;28;20037;-71
2023/02/28 05:46:55;;;;;;;10.70;4.03;;;-3273.40;95.40;;;;;;5029619;28;20036;-71
2023/02/28 05:49:21;;;;;;;6.97;3.95;;;-3273.30;95.50;;;;;;5029133;28;20548;-72
2023/02/28 05:51:46;;;;;;;9.75;4.30;;;-3273.30;95.70;;;;;;5026421;28;20033;-70
2023/02/28 05:54:12;;;;;;;8.80;3.85;;;-3273.30;95.60;;;;;;5026757;28;21207;-70
2023/02/28 05:56:43;;;;;;;7.32;4.10;;;-3273.30;95.50;;;;;;5025236;28;20037;-71
2023/02/28 05:59:09;;;;;;;9.88;3.92;;;-3273.20;95.50;;;;;;5029391;28;20030;-73
2023/02/28 06:01:47;;;;;;;12.10;4.15;;;-3273.30;95.70;;;;;;5025401;28;20434;-71
2023/02/28 06:04:17;;;;;;;7.90;3.97;;;-3273.20;95.70;;;;;;5029379;28;20055;-71
2023/02/28 06:06:43;;;;;;;8.17;4.27;;;-3273.20;95.70;;;;;;5026369;28;20033;-71
2023/02/28 06:09:09;;;;;;;8.77;4.93;;;-3273.20;95.70;;;;;;5030967;28;20029;-70
2023/02/28 06:11:34;;;;;;;11.15;5.30;;;-3273.20;95.60;;;;;;5042100;28;20043;-71
2023/02/28 06:14:01;;;;;;;12.85;5.25;;;-3273.20;95.80;;;;;;5035400;28;20076;-71
2023/02/28 06:16:28;;;;;;;12.32;6.30;;;-3273.20;95.80;;;;;;5026029;28;20038;-71
2023/02/28 06:18:55;;;;;;;15.23;6.07;;;-3273.20;95.90;;;;;;5035126;28;20107;-71
2023/02/28 06:21:21;;;;;;;14.73;7.57;;;-3273.20;95.90;;;;;;5037608;28;20033;-72
2023/02/28 06:23:47;;;;;;;17.92;8.07;;;-3273.20;95.90;;;;;;5042936;28;20394;-71
2023/02/28 06:26:12;;;;;;;23.60;8.70;;;-3273.30;95.90;;;;;;5014220;28;20041;-71
2023/02/28 06:28:38;;;;;;;16.10;8.02;;;-3273.30;95.80;;;;;;5031546;28;20083;-71
2023/02/28 06:31:08;;;;;;;16.77;7.07;;;-3273.20;95.80;;;;;;5033027;28;20041;-71
2023/02/28 06:33:34;;;;;;;16.27;7.53;;;-3273.40;96.00;;;;;;5038160;28;20044;-71
2023/02/28 06:36:00;;;;;;;18.33;8.40;;;-3273.40;95.90;;;;;;5028978;28;20474;-71
2023/02/28 06:38:25;;;;;;;17.80;8.43;;;-3273.40;95.90;;;;;;5032053;28;20484;-71
2023/02/28 06:40:55;;;;;;;18.67;8.38;;;-3273.30;95.80;;;;;;5029591;28;20041;-71
2023/02/28 06:43:22;;;;;;;18.23;7.47;;;-3273.30;95.80;;;;;;5024680;28;20045;-70
2023/02/28 06:45:47;;;;;;;15.13;7.85;;;-3273.30;95.90;;;;;;5028134;28;20045;-70
2023/02/28 06:48:13;;;;;;;18.20;8.10;;;-3273.30;95.70;;;;;;5033749;28;20044;-71
2023/02/28 06:50:38;;;;;;;15.40;7.65;;;-3273.30;95.80;;;;;;5030765;28;20034;-70
2023/02/28 06:53:04;;;;;;;14.63;7.35;;;-3273.30;95.70;;;;;;5024744;28;20040;-71
2023/02/28 06:55:30;;;;;;;19.08;8.25;;;-3273.30;95.70;;;;;;5032719;28;20034;-71
2023/02/28 06:57:55;;;;;;;21.10;8.57;;;-3273.30;95.70;;;;;;5025426;28;20386;-71
2023/02/28 07:00:21;;;;;;;15.82;8.20;;;-3273.50;95.90;;;;;;5040466;28;20393;-71
2023/02/28 07:02:47;;;;;;;15.45;8.73;;;-3273.50;95.80;;;;;;5038568;28;20058;-71
2023/02/28 07:05:13;;;;;;;21.75;9.60;;;-3273.50;95.70;;;;;;5035062;28;20033;-71
2023/02/28 07:07:43;;;;;;;19.48;9.18;;;-3273.50;95.70;;;;;;5039069;28;20091;-71
2023/02/28 07:10:11;;;;;;;16.85;8.45;;;-3273.60;95.80;;;;;;5035272;28;20053;-71
2023/02/28 07:12:37;;;;;;;16.33;8.98;;;-3273.70;95.80;;;;;;5025739;28;20037;-72
2023/02/28 07:15:05;;;;;;;17.63;8.38;;;-3273.70;95.90;;;;;;5036977;28;20086;-71
2023/02/28 07:17:30;;;;;;;17.52;8.63;;;-3273.90;96.10;;;;;;5035586;28;20461;-71
2023/02/28 07:19:56;;;;;;;14.35;8.98;;;-3274.00;96.00;;;;;;5030393;28;20080;-71
2023/02/28 07:22:21;;;;;;;18.13;8.48;;;-3274.00;96.00;;;;;;5023366;28;20038;-71
2023/02/28 07:24:47;;;;;;;16.77;8.60;;;-3274.10;96.00;;;;;;5029815;28;20108;-71
2023/02/28 07:27:25;;;;;;;18.25;8.77;;;-3274.30;96.40;;;;;;5029024;28;20540;-71
2023/02/28 07:29:51;;;;;;;17.38;8.35;;;-3274.30;96.30;;;;;;5021884;28;20084;-71
2023/02/28 07:32:16;;;;;;;16.15;7.53;;;-3274.60;96.50;;;;;;5033273;28;20076;-71
2023/02/28 07:34:42;;;;;;;16.42;7.90;;;-3274.90;96.90;;;;;;5029394;28;20051;-72
2023/02/28 07:37:07;;;;;;;14.98;8.45;;;-3275.10;96.90;;;;;;5024952;28;20052;-71
2023/02/28 07:39:33;;;;;;;15.18;7.68;;;-3275.20;96.80;;;;;;5022431;28;20030;-71
2023/02/28 07:41:59;;;;;;;18.35;8.73;;;-3275.30;96.80;;;;;;5027793;28;20481;-71
2023/02/28 07:44:25;;;;;;;16.00;8.48;;;-3275.50;96.60;;;;;;5041583;28;20508;-71
2023/02/28 07:46:51;;;;;;;15.45;8.05;;;-3275.60;96.80;;;;;;5036483;28;20025;-71
2023/02/28 07:49:16;;;;;;;17.67;8.38;;;-3275.80;96.60;;;;;;5035875;28;20037;-71
2023/02/28 07:51:42;;;;;;;13.50;7.88;;;-3275.90;96.50;;;;;;5032547;28;20386;-71
2023/02/28 07:54:07;;;;;;;15.57;7.60;;;-3276.00;96.10;;;;;;5035733;28;20037;-71
2023/02/28 07:56:33;;;;;;;16.80;7.75;;;-3276.10;96.00;;;;;;5030870;28;20034;-71
2023/02/28 07:58:58;;;;;;;11.55;7.63;;;-3276.30;95.90;;;;;;5027545;28;20041;-71
2023/02/28 08:01:24;;;;;;;15.20;7.32;;;-3276.60;95.30;;;;;;5030596;28;20497;-71
2023/02/28 08:03:49;;;;;;;12.05;6.45;;;0.00;95.10;;;;;;5029104;28;20047;-71
2023/02/28 08:06:18;;;;;;;12.38;5.88;;;0.10;94.00;;;;;;5026538;28;20061;-71
2023/02/28 08:08:44;;;;;;;9.48;5.60;;;0.40;93.80;;;;;;5025332;28;20417;-72
2023/02/28 08:11:09;;;;;;;9.82;4.63;;;0.40;93.20;;;;;;5029820;28;20026;-71
2023/02/28 08:13:35;;;;;;;8.23;3.70;;;0.80;92.50;;;;;;5032736;28;20381;-72
2023/02/28 08:16:02;;;;;;;7.07;3.20;;;1.10;90.70;;;;;;5033840;28;20032;-72
2023/02/28 08:18:27;;;;;;;5.18;2.67;;;1.30;88.30;;;;;;5032415;28;20084;-72
2023/02/28 08:20:52;;;;;;;11.98;2.72;;;1.60;87.00;;;;;;5027743;28;20037;-72
2023/02/28 08:23:18;;;;;;;7.43;2.40;;;1.80;85.50;;;;;;5030202;28;20449;-71
2023/02/28 08:25:44;;;;;;;3.88;1.73;;;2.00;84.50;;;;;;5041288;28;20084;-70
2023/02/28 08:28:09;;;;;;;3.35;1.85;;;2.50;85.70;;;;;;5030542;28;20536;-71
2023/02/28 08:30:35;;;;;;;4.70;1.92;;;2.40;82.30;;;;;;5022327;28;20383;-71
2023/02/28 08:33:01;;;;;;;4.15;1.50;;;2.40;82.00;;;;;;5031845;28;20152;-71
2023/02/28 08:35:27;;;;;;;5.32;1.90;;;2.60;81.30;;;;;;5044480;28;20087;-71
2023/02/28 08:37:52;;;;;;;3.53;1.95;;;2.60;80.10;;;;;;5032521;28;20030;-71
2023/02/28 08:40:18;;;;;;;5.45;2.03;;;2.80;80.00;;;;;;5028395;28;20040;-71
2023/02/28 08:42:47;;;;;;;5.82;1.70;;;2.90;79.20;;;;;;5033698;28;20076;-71
2023/02/28 08:45:14;;;;;;;3.92;1.70;;;3.10;79.20;;;;;;5048393;28;20042;-71
2023/02/28 08:47:40;;;;;;;6.03;2.10;;;3.60;78.60;;;;;;5045631;28;20055;-71
2023/02/28 08:50:07;;;;;;;2.92;1.60;;;3.80;77.90;;;;;;5039255;28;20430;-70
2023/02/28 08:52:33;;;;;;;5.75;1.88;;;4.10;76.70;;;;;;5025282;28;20385;-71
2023/02/28 08:54:58;;;;;;;5.07;1.80;;;4.30;76.10;;;;;;5038363;28;20030;-72
2023/02/28 08:57:26;;;;;;;3.58;1.70;;;4.30;73.40;;;;;;5030137;28;20116;-71
2023/02/28 08:59:51;;;;;;;5.25;1.73;;;4.20;72.00;;;;;;5018956;28;20071;-71
2023/02/28 09:02:17;;;;;;;2.55;1.30;;;4.20;72.90;;;;;;5033739;28;20840;-71
2023/02/28 09:04:45;;;;;;;3.08;1.10;;;4.30;71.40;;;;;;5034354;28;20389;-71
2023/02/28 09:07:11;;;;;;;2.15;0.85;;;4.20;70.30;;;;;;5024097;28;20092;-71
2023/02/28 09:09:36;;;;;;;2.55;0.90;;;4.20;67.30;;;;;;5031636;28;20041;-71
2023/02/28 09:12:02;;;;;;;2.70;1.13;;;4.30;66.50;;;;;;5044838;28;20033;-71
2023/02/28 09:14:28;;;;;;;1.95;1.00;;;4.60;68.60;;;;;;5044470;28;20037;-71
2023/02/28 09:16:54;;;;;;;3.30;1.15;;;4.80;66.20;;;;;;5036192;28;20037;-71
2023/02/28 09:19:20;;;;;;;1.98;0.80;;;4.80;65.70;;;;;;5045517;28;20021;-71
2023/02/28 09:21:45;;;;;;;2.67;0.90;;;5.10;66.70;;;;;;5027053;28;20030;-71
2023/02/28 09:24:14;;;;;;;5.75;1.10;;;5.00;62.90;;;;;;5039240;28;20491;-71
2023/02/28 09:26:39;;;;;;;1.42;0.60;;;4.90;59.80;;;;;;5024168;28;20013;-71
2023/02/28 09:29:06;;;;;;;1.67;0.77;;;4.90;58.60;;;;;;5024123;28;21529;-71
2023/02/28 09:31:32;;;;;;;2.65;0.70;;;5.30;59.90;;;;;;5029820;28;20029;-71
2023/02/28 09:33:59;;;;;;;1.98;0.80;;;5.30;57.00;;;;;;5012672;28;20447;-71
2023/02/28 09:36:26;;;;;;;1.67;0.40;;;5.40;58.10;;;;;;5021538;28;20030;-71
2023/02/28 09:38:52;;;;;;;1.98;0.68;;;5.40;53.00;;;;;;4997111;28;20076;-71
2023/02/28 09:41:25;;;;;;;1.40;0.68;;;5.40;53.80;;;;;;5016385;28;20490;-71
2023/02/28 09:43:55;;;;;;;2.65;0.80;;;5.50;54.40;;;;;;5001614;28;20111;-71
2023/02/28 09:46:34;;;;;;;0.98;0.60;;;5.70;55.60;;;;;;5019166;28;20033;-71
2023/02/28 09:49:07;;;;;;;1.63;0.90;;;5.60;55.30;;;;;;5032292;28;20026;-71
2023/02/28 09:51:44;;;;;;;1.58;0.68;;;5.60;56.00;;;;;;5030682;28;20029;-72
2023/02/28 09:54:18;;;;;;;1.67;0.90;;;5.70;56.10;;;;;;5012209;28;20478;-72
2023/02/28 09:56:55;;;;;;;2.85;1.20;;;5.70;56.40;;;;;;4997788;28;20088;-72
2023/02/28 09:59:56;;;;;;;7.15;1.98;;;5.90;55.30;;;;;;5012442;28;20030;-71
2023/02/28 10:02:40;;;;;;;;;;;6.30;57.30;;;;;;5010780;28;20034;-72
2023/02/28 10:05:12;;;;;;;4.95;1.17;;;6.30;55.20;;;;;;5012868;28;20298;-72
2023/02/28 10:08:04;;;;;;;3.65;1.42;;;6.70;57.30;;;;;;5025929;28;20030;-72
2023/02/28 10:10:48;;;;;;;2.97;1.00;;;6.80;58.00;;;;;;5031565;28;20089;-72
2023/02/28 10:13:31;;;;;;;2.45;0.93;;;6.90;56.10;;;;;;5014362;28;20025;-72
2023/02/28 10:16:07;;;;;;;2.63;0.80;;;7.00;55.90;;;;;;5019659;28;20112;-72
2023/02/28 10:19:34;;;;;;;2.65;1.02;;;6.50;55.10;;;;;;5034696;28;20043;-72
2023/02/28 10:22:20;;;;;;;3.63;1.20;;;6.30;54.70;;;;;;4943947;28;20130;-72
2023/02/28 10:24:51;;;;;;;2.30;1.08;;;6.60;57.10;;;;;;5017870;28;20058;-72
2023/02/28 10:27:24;;;;;;;2.45;1.10;;;6.50;55.50;;;;;;5015941;28;20029;-72
2023/02/28 10:29:53;;;;;;;2.33;0.95;;;6.60;56.00;;;;;;5012085;28;20053;-72
2023/02/28 10:32:22;;;;;;;1.65;0.88;;;6.80;54.90;;;;;;5026467;28;20025;-72
2023/02/28 10:34:56;;;;;;;1.55;0.90;;;7.00;55.20;;;;;;5035411;28;20437;-72
2023/02/28 10:37:22;;;;;;;1.35;0.90;;;7.10;53.60;;;;;;5024058;28;20041;-72
2023/02/28 10:39:47;;;;;;;2.05;0.80;;;6.90;53.90;;;;;;5029650;28;20051;-72
2023/02/28 10:42:27;;;;;;;1.42;0.80;;;6.80;52.60;;;;;;5017755;28;20140;-72
2023/02/28 10:45:12;;;;;;;3.03;0.88;;;6.60;54.60;;;;;;5031134;28;20108;-72
2023/02/28 10:47:51;;;;;;;3.33;0.90;;;6.70;52.70;;;;;;5032499;28;20037;-72
2023/02/28 10:50:28;;;;;;;10.05;5.80;;;7.00;53.10;;;;;;5010384;28;20446;-72
2023/02/28 10:52:54;;;;;;;4.22;1.25;;;6.80;53.10;;;;;;5022208;28;20034;-72
2023/02/28 10:55:25;;;;;;;3.85;1.08;;;6.70;54.60;;;;;;5019578;28;20045;-72
2023/02/28 10:57:51;;;;;;;2.65;0.80;;;7.20;53.30;;;;;;5014794;28;20033;-72
2023/02/28 11:00:20;;;;;;;2.20;0.95;;;6.90;53.90;;;;;;5012390;28;20234;-72
2023/02/28 11:02:46;;;;;;;2.42;0.95;;;6.70;51.00;;;;;;5034583;28;20018;-72
2023/02/28 11:05:31;;;;;;;3.60;1.30;;;7.20;54.50;;;;;;5022887;28;20044;-72
2023/02/28 11:08:05;;;;;;;1.77;0.80;;;7.40;51.20;;;;;;5006288;28;20181;-72
2023/02/28 11:10:34;;;;;;;2.00;1.08;;;7.40;52.40;;;;;;5027971;28;20039;-72
2023/02/28 11:13:00;;;;;;;1.83;0.88;;;7.20;51.70;;;;;;5009867;28;20018;-72
2023/02/28 11:15:29;;;;;;;4.07;1.00;;;7.30;51.10;;;;;;5033981;28;20038;-72
2023/02/28 11:18:16;;;;;;;2.47;0.88;;;7.00;50.60;;;;;;5034687;28;20056;-72
2023/02/28 11:20:42;;;;;;;1.75;0.90;;;7.20;51.30;;;;;;5029619;28;20117;-73
2023/02/28 11:23:13;;;;;;;2.72;1.20;;;7.50;50.60;;;;;;5030743;28;20112;-72
2023/02/28 11:25:39;;;;;;;2.58;0.80;;;7.50;51.10;;;;;;5013314;28;20033;-73
2023/02/28 11:28:22;;;;;;;1.85;1.00;;;7.60;51.40;;;;;;5017427;28;20034;-72
2023/02/28 11:31:01;;;;;;;3.15;0.98;;;7.90;51.60;;;;;;5021322;28;20053;-72
2023/02/28 11:33:29;;;;;;;2.75;0.88;;;8.10;49.90;;;;;;5047557;28;20513;-73
2023/02/28 11:36:00;;;;;;;2.78;0.98;;;7.90;50.50;;;;;;5033150;28;20029;-73
2023/02/28 11:38:26;;;;;;;2.10;0.93;;;8.20;49.80;;;;;;5035708;28;20465;-73
2023/02/28 11:40:55;;;;;;;2.53;0.90;;;8.20;50.90;;;;;;5037451;28;20112;-73
2023/02/28 11:43:43;;;;;;;1.98;0.95;;;8.40;49.20;;;;;;5032253;28;20021;-73
2023/02/28 11:46:29;;;;;;;2.28;1.05;;;8.20;48.90;;;;;;5031973;28;20085;-73
2023/02/28 11:49:00;;;;;;;1.55;1.02;;;8.40;50.20;;;;;;5036026;28;20587;-73
2023/02/28 11:51:33;;;;;;;3.20;1.10;;;8.80;50.20;;;;;;5033137;28;20022;-73
2023/02/28 11:54:20;;;;;;;1.45;0.85;;;8.70;48.50;;;;;;5032606;28;20037;-73
2023/02/28 11:56:56;;;;;;;2.33;0.80;;;8.60;48.60;;;;;;5031877;28;20026;-73
2023/02/28 12:00:06;;;;;;;2.88;0.93;;;8.90;47.10;;;;;;5019533;28;20064;-73
2023/02/28 12:03:09;;;;;;;2.92;0.95;;;9.20;47.10;;;;;;4997281;28;20515;-73
2023/02/28 12:05:49;;;;;;;4.72;1.02;;;9.60;47.40;;;;;;5037579;28;20375;-73
2023/02/28 12:08:46;;;;;;;2.65;1.02;;;9.40;47.20;;;;;;5031128;28;20033;-73
2023/02/28 12:11:19;;;;;;;2.00;0.80;;;9.10;46.60;;;;;;5018999;28;20037;-73
2023/02/28 12:13:56;;;;;;;2.17;0.80;;;9.10;46.70;;;;;;5035827;28;20032;-73
2023/02/28 12:16:32;;;;;;;2.35;0.80;;;9.00;46.50;;;;;;5031790;28;20029;-73
2023/02/28 12:19:15;;;;;;;2.17;0.77;;;9.70;46.10;;;;;;5027198;28;20504;-73
2023/02/28 12:22:09;;;;;;;3.03;1.08;;;9.90;45.10;;;;;;5025967;28;20474;-73
2023/02/28 12:24:56;;;;;;;3.78;1.25;;;9.60;45.30;;;;;;5030805;28;20034;-73
2023/02/28 12:27:27;;;;;;;2.22;1.02;;;9.90;45.30;;;;;;5026080;28;20064;-73
2023/02/28 12:30:04;;;;;;;4.45;1.10;;;9.70;45.10;;;;;;5033124;28;20471;-73
2023/02/28 12:32:38;;;;;;;2.35;1.02;;;10.30;44.50;;;;;;5028327;28;20037;-73
2023/02/28 12:35:04;;;;;;;1.55;0.88;;;10.40;43.20;;;;;;5050368;28;20061;-73
2023/02/28 12:37:49;;;;;;;3.67;1.10;;;10.30;44.50;;;;;;5036684;28;20065;-73
2023/02/28 12:40:22;;;;;;;2.10;1.00;;;10.90;44.60;;;;;;5043641;28;20501;-73
2023/02/28 12:42:56;;;;;;;1.50;0.82;;;10.60;42.10;;;;;;5029976;28;20069;-73
2023/02/28 12:45:40;;;;;;;3.22;1.00;;;11.40;42.70;;;;;;5024611;28;20058;-73
2023/02/28 12:48:10;;;;;;;1.83;0.90;;;11.70;39.40;;;;;;5026108;28;20033;-73
2023/02/28 12:50:37;;;;;;;1.90;0.90;;;11.00;39.80;;;;;;5032345;28;20026;-73